地図

経路データ

SID SEASON NUMBER BASIN SUBBASIN NAME ISO_TIME NATURE LAT LON WMO_WIND WMO_PRES WMO_AGENCY TRACK_TYPE DIST2LAND LANDFALL IFLAG USA_AGENCY USA_ATCF_ID USA_LAT USA_LON USA_RECORD USA_STATUS USA_WIND USA_PRES USA_SSHS USA_R34_NE USA_R34_SE USA_R34_SW USA_R34_NW USA_R50_NE USA_R50_SE USA_R50_SW USA_R50_NW USA_R64_NE USA_R64_SE USA_R64_SW USA_R64_NW USA_POCI USA_ROCI USA_RMW USA_EYE TOKYO_LAT TOKYO_LON TOKYO_GRADE TOKYO_WIND TOKYO_PRES TOKYO_R50_DIR TOKYO_R50_LONG TOKYO_R50_SHORT TOKYO_R30_DIR TOKYO_R30_LONG TOKYO_R30_SHORT TOKYO_LAND CMA_LAT CMA_LON CMA_CAT CMA_WIND CMA_PRES HKO_LAT HKO_LON HKO_CAT HKO_WIND HKO_PRES NEWDELHI_LAT NEWDELHI_LON NEWDELHI_GRADE NEWDELHI_WIND NEWDELHI_PRES NEWDELHI_CI NEWDELHI_DP NEWDELHI_POCI REUNION_LAT REUNION_LON REUNION_TYPE REUNION_WIND REUNION_PRES REUNION_TNUM REUNION_CI REUNION_RMW REUNION_R34_NE REUNION_R34_SE REUNION_R34_SW REUNION_R34_NW REUNION_R50_NE REUNION_R50_SE REUNION_R50_SW REUNION_R50_NW REUNION_R64_NE REUNION_R64_SE REUNION_R64_SW REUNION_R64_NW BOM_LAT BOM_LON BOM_TYPE BOM_WIND BOM_PRES BOM_TNUM BOM_CI BOM_RMW BOM_R34_NE BOM_R34_SE BOM_R34_SW BOM_R34_NW BOM_R50_NE BOM_R50_SE BOM_R50_SW BOM_R50_NW BOM_R64_NE BOM_R64_SE BOM_R64_SW BOM_R64_NW BOM_ROCI BOM_POCI BOM_EYE BOM_POS_METHOD BOM_PRES_METHOD NADI_LAT NADI_LON NADI_CAT NADI_WIND NADI_PRES WELLINGTON_LAT WELLINGTON_LON WELLINGTON_WIND WELLINGTON_PRES DS824_LAT DS824_LON DS824_STAGE DS824_WIND DS824_PRES TD9636_LAT TD9636_LON TD9636_STAGE TD9636_WIND TD9636_PRES TD9635_LAT TD9635_LON TD9635_WIND TD9635_PRES TD9635_ROCI NEUMANN_LAT NEUMANN_LON NEUMANN_CLASS NEUMANN_WIND NEUMANN_PRES MLC_LAT MLC_LON MLC_CLASS MLC_WIND MLC_PRES USA_GUST BOM_GUST BOM_GUST_PER REUNION_GUST REUNION_GUST_PER USA_SEAHGT USA_SEARAD_NE USA_SEARAD_SE USA_SEARAD_SW USA_SEARAD_NW STORM_SPEED STORM_DIR
1905200N17122 1905 27 WP MM NOT_NAMED 1905-07-18 16:00:00 NR 16.7000 122.300 main 0 0 __________O___ -1 16.7000 122.300 7 14 275
1905200N17122 1905 27 WP MM NOT_NAMED 1905-07-18 18:00:00 NR 16.7390 121.801 main 0 0 __________P___ -1 16.7390 121.801 7 14 275
1905200N17122 1905 27 WP MM NOT_NAMED 1905-07-18 21:00:00 NR 16.8005 121.065 main 0 0 __________P___ -1 16.8005 121.065 7 14 276
1905200N17122 1905 27 WP MM NOT_NAMED 1905-07-19 00:00:00 NR 16.8726 120.359 main 10 15 __________P___ -1 16.8726 120.359 7 13 277
1905200N17122 1905 27 WP MM NOT_NAMED 1905-07-19 03:00:00 NR 16.9639 119.704 main 77 77 __________P___ -1 16.9639 119.704 7 12 279
1905200N17122 1905 27 WP MM NOT_NAMED 1905-07-19 04:00:00 NR 17.0000 119.500 main 84 84 __________O___ -1 17.0000 119.500 2 12 282
1905200N17122 1905 27 WP MM NOT_NAMED 1905-07-19 06:00:00 NR 17.0819 119.115 main 116 116 __________P___ -1 17.0819 119.115 2 11 284
1905200N17122 1905 27 WP MM NOT_NAMED 1905-07-19 09:00:00 NR 17.2244 118.582 main 162 162 __________P___ -1 17.2244 118.582 2 10 287
1905200N17122 1905 27 WP MM NOT_NAMED 1905-07-19 12:00:00 NR 17.3823 118.078 main 218 227 __________P___ -1 17.3823 118.078 2 10 288
1905200N17122 1905 27 WP MM NOT_NAMED 1905-07-19 15:00:00 NR 17.5459 117.573 main 269 284 __________P___ -1 17.5459 117.573 2 10 289
1905200N17122 1905 27 WP MM NOT_NAMED 1905-07-19 16:00:00 NR 17.6000 117.400 main 293 293 __________O___ -1 17.6000 117.400 2 11 287
1905200N17122 1905 27 WP MM NOT_NAMED 1905-07-19 18:00:00 NR 17.7048 117.038 main 336 336 __________P___ -1 17.7048 117.038 2 11 287
1905200N17122 1905 27 WP MM NOT_NAMED 1905-07-19 21:00:00 NR 17.8623 116.484 main 393 393 __________P___ -1 17.8623 116.484 2 11 286
1905200N17122 1905 27 WP MM NOT_NAMED 1905-07-20 00:00:00 NR 18.0149 115.909 main 456 456 __________P___ -1 18.0149 115.909 2 12 285
1905200N17122 1905 27 WP MM NOT_NAMED 1905-07-20 03:00:00 NR 18.1564 115.307 main 470 458 __________P___ -1 18.1564 115.307 2 12 284
1905200N17122 1905 27 WP MM NOT_NAMED 1905-07-20 04:00:00 NR 18.2000 115.100 main 458 415 __________O___ -1 18.2000 115.100 2 12 281
1905200N17122 1905 27 WP MM NOT_NAMED 1905-07-20 06:00:00 NR 18.2702 114.665 main 415 342 __________P___ -1 18.2702 114.665 2 13 279
1905200N17122 1905 27 WP MM NOT_NAMED 1905-07-20 09:00:00 NR 18.3629 113.986 main 342 271 __________P___ -1 18.3629 113.986 2 13 278
1905200N17122 1905 27 WP MM NOT_NAMED 1905-07-20 12:00:00 NR 18.4539 113.297 main 271 201 __________P___ -1 18.4539 113.297 2 13 279
1905200N17122 1905 27 WP MM NOT_NAMED 1905-07-20 15:00:00 NR 18.5591 112.620 main 201 184 __________P___ -1 18.5591 112.620 2 13 280
1905200N17122 1905 27 WP MM NOT_NAMED 1905-07-20 16:00:00 NR 18.6000 112.400 main 184 145 __________O___ -1 18.6000 112.400 2 12 284
1905200N17122 1905 27 WP MM NOT_NAMED 1905-07-20 18:00:00 NR 18.7094 111.981 main 145 84 __________P___ -1 18.7094 111.981 2 12 287
1905200N17122 1905 27 WP MM NOT_NAMED 1905-07-20 21:00:00 NR 18.8932 111.370 main 84 23 __________P___ -1 18.8932 111.370 2 12 288
1905200N17122 1905 27 WP MM NOT_NAMED 1905-07-21 00:00:00 NR 19.0811 110.776 main 23 0 __________P___ -1 19.0811 110.776 2 12 288
1905200N17122 1905 27 WP MM NOT_NAMED 1905-07-21 03:00:00 NR 19.2511 110.193 main 0 0 __________P___ -1 19.2511 110.193 2 11 287
1905200N17122 1905 27 WP MM NOT_NAMED 1905-07-21 04:00:00 NR 19.3000 110.000 main 0 0 __________O___ -1 19.3000 110.000 2 11 283
1905200N17122 1905 27 WP MM NOT_NAMED 1905-07-21 06:00:00 NR 19.3749 109.613 main 0 0 __________P___ -1 19.3749 109.613 2 11 280
1905200N17122 1905 27 WP MM NOT_NAMED 1905-07-21 09:00:00 NR 19.4625 109.040 main 0 0 __________P___ -1 19.4625 109.040 2 11 278
1905200N17122 1905 27 WP MM NOT_NAMED 1905-07-21 12:00:00 NR 19.5287 108.469 main 23 30 __________P___ -1 19.5287 108.469 2 11 276
1905200N17122 1905 27 WP MM NOT_NAMED 1905-07-21 15:00:00 NR 19.5830 107.894 main 80 80 __________P___ -1 19.5830 107.894 2 11 276
1905200N17122 1905 27 WP MM NOT_NAMED 1905-07-21 16:00:00 NR 19.6000 107.700 main 100 100 __________O___ -1 19.6000 107.700 2 11 275
1905200N17122 1905 27 WP MM NOT_NAMED 1905-07-21 18:00:00 NR 19.6340 107.309 main 107 59 __________P___ -1 19.6340 107.309 2 11 275
1905200N17122 1905 27 WP MM NOT_NAMED 1905-07-21 21:00:00 NR 19.6850 106.713 main 59 23 __________P___ -1 19.6850 106.713 2 11 275
1905200N17122 1905 27 WP MM NOT_NAMED 1905-07-22 00:00:00 NR 19.7352 106.110 main 23 0 __________P___ -1 19.7352 106.110 2 11 275
1905200N17122 1905 27 WP MM NOT_NAMED 1905-07-22 03:00:00 NR 19.7841 105.503 main 0 0 __________P___ -1 19.7841 105.503 2 11 275
1905200N17122 1905 27 WP MM NOT_NAMED 1905-07-22 04:00:00 NR 19.8000 105.300 main 0 __________O___ -1 19.8000 105.300 7 12 275

デジタル台風データ・検索

IBTrACS Databaseについて

本データベースは、米国NOAAが公開する1842年以降の世界の熱帯低気圧のベストトラックデータアーカイブInternational Best Track Archive for Climate Stewardship (IBTrACS)を、ウェブで閲覧しやすい形式に変換したものです。

最終更新日:2021-12-01